Aviation Digital Data Service (ADDS)

Output produced by METARs form (0737 UTC 18 November 2018)
found at http://www.aviationweather.gov/metar/data/
 
METAR text: RJBT 180700Z 21005KT 9999 FEW030 BKN120 15/15 Q1015
Conditions at: RJBT (TAJIMA , JP) observed 0700 UTC 18 November 2018
Temperature: 15.0°C (59°F)
Dewpoint: 15.0°C (59°F) [RH = 100%]
Pressure (altimeter): 29.97 inches Hg (1015.0 mb)
Winds: from the SSW (210 degrees) at 6 MPH (5 knots; 2.6 m/s)
Visibility: 6 or more miles (10+ km)
Ceiling: 12000 feet AGL
Clouds: few clouds at 3000 feet AGL
broken clouds at 12000 feet AGL
Weather: no significant weather observed at this time